Pleasant Ridge, Michigan
Current Conditions -  °F | °C
As of 5:35 PM on Sunday 25 Jan 2015 (Local Time) from KVLL Reporting Station
Broken Clouds Broken Clouds  
Wind Chill: 11°   Ceiling: 12000
Heat Index: 22°   Visibility: 10mi
Dew Point:   Wind: 10mph
Humidity: 58%   Direction: 30°NNE
Pressure: 29.97"   Gusts: 18mph
Location:  42.47°N, 83.14°W
Report Text: KVLL 252235Z AUTO 03009G16KT 340V040 10SM BKN120 M05/M13 A2997 RMK AO2 T10551127
Loading
Personal Weather Stations






























Interactive Weather Map New forecast layout! Learn more

10-Day Weather Forecast

Advertisements
Track Severe Weather on mobile